createdAt,value
2023-03-11T00:00:13.526Z,4.70
2023-03-11T00:01:46.475Z,5.22
2023-03-11T00:03:20.442Z,3.97
2023-03-11T00:04:54.796Z,4.60
2023-03-11T00:06:27.844Z,2.35
2023-03-11T00:08:00.684Z,6.68
2023-03-11T00:09:33.672Z,4.22
2023-03-11T00:11:06.641Z,6.53
2023-03-11T00:12:38.573Z,6.00
2023-03-11T00:14:11.492Z,4.25
2023-03-11T00:15:47.021Z,5.95
2023-03-11T00:17:19.961Z,6.95
2023-03-11T00:18:53.262Z,3.53
2023-03-11T00:20:30.462Z,4.60
2023-03-11T00:22:03.978Z,3.47
2023-03-11T00:23:36.924Z,2.40
2023-03-11T00:25:10.927Z,2.78
2023-03-11T00:26:43.928Z,4.53
2023-03-11T00:28:17.718Z,5.22
2023-03-11T00:29:49.718Z,5.88
2023-03-11T00:31:22.903Z,3.80
2023-03-11T00:32:57.600Z,6.50
2023-03-11T00:34:30.603Z,4.35
2023-03-11T00:36:06.861Z,5.63
2023-03-11T00:37:38.817Z,3.20
2023-03-11T00:39:11.746Z,4.95
2023-03-11T00:40:45.836Z,2.13
2023-03-11T00:42:17.898Z,4.15
2023-03-11T00:43:50.783Z,4.13
2023-03-11T00:45:23.355Z,4.00
2023-03-11T00:46:56.206Z,4.88
2023-03-11T00:48:29.217Z,2.33
2023-03-11T00:50:01.233Z,4.03
2023-03-11T00:51:35.720Z,4.72
2023-03-11T00:53:08.669Z,4.25
2023-03-11T00:54:40.554Z,5.13
2023-03-11T00:56:15.917Z,3.35
2023-03-11T00:57:48.835Z,3.90
2023-03-11T00:59:21.746Z,2.70
2023-03-11T01:00:54.677Z,5.15
2023-03-11T01:02:26.714Z,4.75
2023-03-11T01:03:59.694Z,3.30
2023-03-11T01:05:34.817Z,3.03
2023-03-11T01:07:11.198Z,3.25
2023-03-11T01:08:44.348Z,2.13
2023-03-11T01:10:18.144Z,2.05
2023-03-11T01:11:51.619Z,2.05
2023-03-11T01:13:24.732Z,2.92
2023-03-11T01:14:56.769Z,4.32
2023-03-11T01:16:29.677Z,5.03
2023-03-11T01:18:03.115Z,4.45
2023-03-11T01:19:35.187Z,2.80
2023-03-11T01:21:08.243Z,5.47
2023-03-11T01:22:42.510Z,5.75
2023-03-11T01:24:14.460Z,5.38
2023-03-11T01:25:47.519Z,4.32
2023-03-11T01:27:20.446Z,6.47
2023-03-11T01:28:53.409Z,2.95
2023-03-11T01:30:27.442Z,3.40
2023-03-11T01:32:00.369Z,4.80
2023-03-11T01:33:33.279Z,3.78
2023-03-11T01:35:06.800Z,5.32
2023-03-11T01:36:38.850Z,3.63
2023-03-11T01:38:13.451Z,3.13
2023-03-11T01:39:45.390Z,4.03
2023-03-11T01:41:18.551Z,2.87
2023-03-11T01:42:51.447Z,3.08
2023-03-11T01:44:23.429Z,6.68
2023-03-11T01:46:14.431Z,3.13
2023-03-11T01:47:47.349Z,4.80
2023-03-11T01:49:21.847Z,6.50
2023-03-11T01:50:55.139Z,3.03
2023-03-11T01:52:28.204Z,5.45
2023-03-11T01:54:06.736Z,2.90
2023-03-11T01:55:38.892Z,6.40
2023-03-11T01:57:15.000Z,3.78
2023-03-11T01:58:50.032Z,4.95
2023-03-11T02:00:23.068Z,2.92
2023-03-11T02:02:03.235Z,2.90
2023-03-11T02:03:39.117Z,3.25
2023-03-11T02:05:12.730Z,2.30
2023-03-11T02:06:45.994Z,2.47
2023-03-11T02:08:18.967Z,3.40
2023-03-11T02:09:53.183Z,5.55
2023-03-11T02:11:29.718Z,5.30
2023-03-11T02:13:03.307Z,4.88
2023-03-11T02:14:37.530Z,6.13
2023-03-11T02:16:10.748Z,2.83
2023-03-11T02:17:44.913Z,4.28
2023-03-11T02:19:26.929Z,2.28
2023-03-11T02:21:08.246Z,3.55
2023-03-11T02:22:42.813Z,3.20
2023-03-11T02:24:23.243Z,3.33
2023-03-11T02:26:05.319Z,6.63
2023-03-11T02:27:45.115Z,6.57
2023-03-11T02:29:18.601Z,5.47
2023-03-11T02:30:51.840Z,4.90
2023-03-11T02:32:24.383Z,3.85
2023-03-11T02:34:00.862Z,6.07
2023-03-11T02:35:33.872Z,4.20
2023-03-11T02:37:09.222Z,3.05
2023-03-11T02:38:42.044Z,3.22
2023-03-11T02:40:39.413Z,6.40
2023-03-11T02:42:14.886Z,4.53
2023-03-11T02:43:50.694Z,4.13
2023-03-11T02:45:26.747Z,5.28
2023-03-11T02:47:00.628Z,4.80
2023-03-11T02:48:33.965Z,5.30
2023-03-11T02:50:08.582Z,4.55
2023-03-11T02:51:41.533Z,4.70
2023-03-11T02:53:14.561Z,5.18
2023-03-11T02:54:47.450Z,4.40
2023-03-11T02:56:19.490Z,4.85
2023-03-11T02:57:52.386Z,5.07
2023-03-11T02:59:26.826Z,5.88
2023-03-11T03:00:58.951Z,3.73
2023-03-11T03:02:31.872Z,5.87
2023-03-11T03:04:05.075Z,4.03
2023-03-11T03:05:37.227Z,4.65
2023-03-11T03:07:10.476Z,5.27
2023-03-11T03:08:43.346Z,5.05
2023-03-11T03:10:18.074Z,4.10
2023-03-11T03:11:50.959Z,4.33
2023-03-11T03:13:22.866Z,4.53
2023-03-11T03:14:58.072Z,3.47
2023-03-11T03:16:31.000Z,3.60
2023-03-11T03:18:03.017Z,4.80
2023-03-11T03:19:35.930Z,4.33
2023-03-11T03:21:08.905Z,4.00
2023-03-11T03:22:42.148Z,3.83
2023-03-11T03:24:15.050Z,4.70
2023-03-11T03:25:47.196Z,3.17
2023-03-11T03:27:20.397Z,3.43
2023-03-11T03:28:53.296Z,4.50
2023-03-11T03:30:28.401Z,4.43
2023-03-11T03:32:01.357Z,3.57
2023-03-11T03:33:34.314Z,4.07
2023-03-11T03:35:08.528Z,2.80
2023-03-11T03:36:40.482Z,3.23
2023-03-11T03:38:14.088Z,4.43
2023-03-11T03:39:46.962Z,4.43
2023-03-11T03:41:20.129Z,4.13
2023-03-11T03:42:52.338Z,4.03
2023-03-11T03:44:25.245Z,2.80
2023-03-11T03:46:01.558Z,3.85
2023-03-11T03:47:35.271Z,4.22
2023-03-11T03:49:08.192Z,4.03
2023-03-11T03:50:41.531Z,2.38
2023-03-11T03:52:15.032Z,3.60
2023-03-11T03:53:47.928Z,3.43
2023-03-11T03:55:20.833Z,6.03
2023-03-11T03:56:53.772Z,4.72
2023-03-11T03:58:26.676Z,3.10
2023-03-11T03:59:58.686Z,5.18
2023-03-11T04:01:32.921Z,5.67
2023-03-11T04:03:05.004Z,8.00
2023-03-11T04:04:37.973Z,3.78
2023-03-11T04:06:15.142Z,3.40
2023-03-11T04:07:48.062Z,3.23
2023-03-11T04:09:20.458Z,4.15
2023-03-11T04:10:59.522Z,5.27
2023-03-11T04:12:32.488Z,7.10
2023-03-11T04:14:05.170Z,4.18
2023-03-11T04:15:39.388Z,8.27
2023-03-11T04:17:14.107Z,6.17
2023-03-11T04:18:46.393Z,6.03
2023-03-11T04:20:19.457Z,7.17
2023-03-11T04:21:52.736Z,6.28
2023-03-11T04:23:25.781Z,5.65
2023-03-11T04:24:58.703Z,9.95
2023-03-11T04:26:32.105Z,7.55
2023-03-11T04:29:37.027Z,3.97
2023-03-11T04:31:10.021Z,3.03
2023-03-11T04:32:44.504Z,6.10
2023-03-11T04:34:16.489Z,3.67
2023-03-11T04:35:49.591Z,6.37
2023-03-11T04:37:22.587Z,8.55
2023-03-11T04:38:56.078Z,4.78
2023-03-11T04:40:29.124Z,3.43
2023-03-11T04:42:03.968Z,3.28
2023-03-11T04:43:36.217Z,2.90
2023-03-11T04:45:10.930Z,4.47
2023-03-11T04:46:44.138Z,2.57
2023-03-11T04:48:18.512Z,2.50
2023-03-11T04:49:51.851Z,2.73
2023-03-11T04:52:57.623Z,5.50
2023-03-11T04:54:30.605Z,7.00
2023-03-11T04:56:03.554Z,3.95
2023-03-11T04:57:36.740Z,4.60
2023-03-11T04:59:09.726Z,5.43
2023-03-11T05:00:42.740Z,4.75
2023-03-11T05:02:15.672Z,5.60
2023-03-11T05:03:50.077Z,5.65
2023-03-11T05:05:22.981Z,4.00
2023-03-11T05:06:55.933Z,3.70
2023-03-11T05:08:28.916Z,7.80
2023-03-11T05:10:00.929Z,5.05
2023-03-11T05:11:33.906Z,6.50
2023-03-11T05:13:06.893Z,6.28
2023-03-11T05:14:40.723Z,7.35
2023-03-11T05:16:13.934Z,7.80
2023-03-11T05:17:47.127Z,7.53
2023-03-11T05:19:34.846Z,4.57
2023-03-11T05:21:07.944Z,2.03
2023-03-11T05:22:41.006Z,31.20
2023-03-11T05:24:14.060Z,17.33
2023-03-11T05:25:47.060Z,19.50
2023-03-11T05:27:21.091Z,9.45
2023-03-11T05:28:54.057Z,6.43
2023-03-11T05:30:26.938Z,4.18
2023-03-11T05:31:59.823Z,3.55
2023-03-11T05:33:35.657Z,6.25
2023-03-11T05:35:10.682Z,5.07
2023-03-11T05:36:43.730Z,6.33
2023-03-11T05:38:16.566Z,4.97
2023-03-11T05:39:49.613Z,5.65
2023-03-11T05:41:22.498Z,4.75
2023-03-11T05:42:55.367Z,6.32
2023-03-11T05:44:28.288Z,7.32
2023-03-11T05:46:01.329Z,6.13
2023-03-11T05:47:33.203Z,6.03
2023-03-11T05:49:06.190Z,4.82
2023-03-11T05:50:40.605Z,4.55
2023-03-11T05:52:13.556Z,7.97
2023-03-11T05:53:48.629Z,5.28
2023-03-11T05:55:21.607Z,6.27
2023-03-11T05:56:55.833Z,6.20
2023-03-11T05:58:29.367Z,6.57
2023-03-11T06:00:03.473Z,8.17
2023-03-11T06:01:36.415Z,8.07
2023-03-11T06:03:09.333Z,8.35
2023-03-11T06:04:42.328Z,7.30
2023-03-11T06:06:17.719Z,7.70
2023-03-11T06:07:50.561Z,5.33
2023-03-11T06:09:23.491Z,8.95
2023-03-11T06:11:03.049Z,6.13
2023-03-11T06:12:36.203Z,7.03
2023-03-11T06:14:11.969Z,5.97
2023-03-11T06:15:45.843Z,7.78
2023-03-11T06:17:18.790Z,5.63
2023-03-11T06:18:52.171Z,4.72
2023-03-11T06:21:59.251Z,6.83
2023-03-11T06:23:32.474Z,7.83
2023-03-11T06:25:05.861Z,4.78
2023-03-11T06:28:11.701Z,5.50
2023-03-11T06:29:44.589Z,5.70
2023-03-11T06:31:20.435Z,6.32
2023-03-11T06:32:55.310Z,6.67
2023-03-11T06:34:28.339Z,6.87
2023-03-11T06:36:01.941Z,8.73
2023-03-11T06:37:38.539Z,6.43
2023-03-11T06:39:14.309Z,5.73
2023-03-11T06:40:47.302Z,7.00
2023-03-11T06:42:20.205Z,5.28
2023-03-11T06:43:53.328Z,7.20
2023-03-11T06:45:26.536Z,7.47
2023-03-11T06:46:59.673Z,7.78
2023-03-11T06:48:32.530Z,5.68
2023-03-11T06:50:07.403Z,8.85
2023-03-11T06:51:40.368Z,7.50
2023-03-11T06:53:14.629Z,7.10
2023-03-11T06:54:48.001Z,7.53
2023-03-11T06:57:54.242Z,7.50
2023-03-11T06:59:28.241Z,8.48
2023-03-11T07:01:06.648Z,5.43
2023-03-11T07:02:39.605Z,5.67
2023-03-11T07:04:12.582Z,8.80
2023-03-11T07:05:45.547Z,6.57
2023-03-11T07:07:18.574Z,5.55
2023-03-11T07:08:54.132Z,6.93
2023-03-11T07:10:27.050Z,4.80
2023-03-11T07:12:00.052Z,7.80
2023-03-11T07:13:33.710Z,8.07
2023-03-11T07:15:07.903Z,7.63
2023-03-11T07:16:41.487Z,5.20
2023-03-11T07:18:14.438Z,6.87
2023-03-11T07:19:47.541Z,5.85
2023-03-11T07:21:22.470Z,7.18
2023-03-11T07:22:55.383Z,8.57
2023-03-11T07:24:29.654Z,7.47
2023-03-11T07:26:02.805Z,6.63
2023-03-11T07:27:35.762Z,5.78
2023-03-11T07:29:10.004Z,6.20
2023-03-11T07:30:44.447Z,7.25
2023-03-11T07:32:18.008Z,8.20
2023-03-11T07:33:51.567Z,5.93
2023-03-11T07:35:24.645Z,7.07
2023-03-11T07:36:57.610Z,6.63
2023-03-11T07:38:30.684Z,5.65
2023-03-11T07:40:05.493Z,5.88
2023-03-11T07:41:38.386Z,8.63
2023-03-11T07:43:11.758Z,8.57
2023-03-11T07:46:19.867Z,6.53
2023-03-11T07:47:52.861Z,5.00
2023-03-11T07:49:25.784Z,6.20
2023-03-11T07:51:04.091Z,6.03
2023-03-11T07:52:37.028Z,5.97
2023-03-11T07:54:11.805Z,7.78
2023-03-11T07:55:46.125Z,5.95
2023-03-11T07:57:19.080Z,4.93
2023-03-11T07:58:52.151Z,6.65
2023-03-11T08:00:25.159Z,7.22
2023-03-11T08:01:58.196Z,7.32
2023-03-11T08:03:31.283Z,8.88
2023-03-11T08:05:04.346Z,7.05
2023-03-11T08:06:38.245Z,7.30
2023-03-11T08:08:11.340Z,7.72
2023-03-11T08:09:44.317Z,6.95
2023-03-11T08:11:20.716Z,5.63
2023-03-11T08:12:53.701Z,7.32
2023-03-11T08:14:26.764Z,7.90
2023-03-11T08:15:59.787Z,4.15
2023-03-11T08:17:32.828Z,7.03
2023-03-11T08:19:05.907Z,5.40
2023-03-11T08:20:39.004Z,5.53
2023-03-11T08:24:06.606Z,7.60
2023-03-11T08:25:40.655Z,11.68
2023-03-11T08:27:14.956Z,6.32
2023-03-11T08:28:48.505Z,4.82
2023-03-11T08:31:54.718Z,10.13
2023-03-11T08:33:27.828Z,8.52
2023-03-11T08:35:01.513Z,3.83
2023-03-11T08:36:35.195Z,6.60
2023-03-11T08:38:08.225Z,5.72
2023-03-11T08:39:41.201Z,5.93
2023-03-11T08:41:14.455Z,7.63
2023-03-11T08:42:48.738Z,6.30
2023-03-11T08:44:21.769Z,7.13
2023-03-11T08:45:54.824Z,7.15
2023-03-11T08:47:27.865Z,7.15
2023-03-11T08:49:01.742Z,3.28
2023-03-11T08:50:44.185Z,5.60
2023-03-11T08:52:24.433Z,4.72
2023-03-11T08:53:58.241Z,5.45
2023-03-11T08:55:31.384Z,4.18
2023-03-11T08:57:04.795Z,5.95
2023-03-11T09:00:13.646Z,8.10
2023-03-11T09:01:46.935Z,4.90
2023-03-11T09:03:20.005Z,4.60
2023-03-11T09:04:53.038Z,5.45
2023-03-11T09:06:26.241Z,5.82
2023-03-11T09:07:59.237Z,4.10
2023-03-11T09:09:32.876Z,6.65
2023-03-11T09:11:07.211Z,6.65
2023-03-11T09:12:40.138Z,7.55
2023-03-11T09:14:14.701Z,4.03
2023-03-11T09:15:48.783Z,5.53
2023-03-11T09:17:21.958Z,5.35
2023-03-11T09:18:54.932Z,5.93
2023-03-11T09:20:28.019Z,6.18
2023-03-11T09:22:06.067Z,4.13
2023-03-11T09:23:39.263Z,3.60
2023-03-11T09:25:13.860Z,5.35
2023-03-11T09:26:46.814Z,4.50
2023-03-11T09:28:19.843Z,4.57
2023-03-11T09:29:54.470Z,5.22
2023-03-11T09:31:27.467Z,6.45
2023-03-11T09:33:00.510Z,5.32
2023-03-11T09:34:33.762Z,8.63
2023-03-11T09:36:08.123Z,3.58
2023-03-11T09:37:41.208Z,4.50
2023-03-11T09:39:14.700Z,4.90
2023-03-11T09:42:34.760Z,6.43
2023-03-11T09:44:17.087Z,5.93
2023-03-11T09:46:01.748Z,5.78
2023-03-11T09:47:49.750Z,7.78
2023-03-11T09:49:30.514Z,4.97
2023-03-11T09:51:09.849Z,2.65
2023-03-11T09:52:46.285Z,6.10
2023-03-11T09:54:19.925Z,4.63
2023-03-11T09:55:55.897Z,4.53
2023-03-11T09:57:33.237Z,3.45
2023-03-11T09:59:10.312Z,4.85
2023-03-11T10:00:43.531Z,4.38
2023-03-11T10:02:21.297Z,5.03
2023-03-11T10:03:58.020Z,4.07
2023-03-11T10:05:31.291Z,5.22
2023-03-11T10:07:11.325Z,5.45
2023-03-11T10:08:47.547Z,4.68
2023-03-11T10:10:21.087Z,3.30
2023-03-11T10:12:06.468Z,8.23
2023-03-11T10:13:46.547Z,5.55
2023-03-11T10:15:25.604Z,4.78
2023-03-11T10:17:06.146Z,5.60
2023-03-11T10:18:55.809Z,8.20
2023-03-11T10:20:34.390Z,6.20
2023-03-11T10:22:15.472Z,5.15
2023-03-11T10:24:03.250Z,5.00
2023-03-11T10:25:50.813Z,7.05
2023-03-11T10:27:29.510Z,6.25
2023-03-11T10:29:11.434Z,5.68
2023-03-11T10:30:48.603Z,5.60
2023-03-11T10:32:27.389Z,8.75
2023-03-11T10:34:05.334Z,6.07
2023-03-11T10:35:40.322Z,7.00
2023-03-11T10:37:18.115Z,6.43
2023-03-11T10:38:53.102Z,9.05
2023-03-11T10:40:31.316Z,5.82
2023-03-11T10:42:06.588Z,8.90
2023-03-11T10:43:44.582Z,7.05
2023-03-11T10:45:17.776Z,7.38
2023-03-11T10:46:50.993Z,3.53
2023-03-11T10:48:26.116Z,2.60
2023-03-11T10:50:00.371Z,4.20
2023-03-11T10:51:36.458Z,4.35
2023-03-11T10:53:11.843Z,5.38
2023-03-11T10:54:48.142Z,4.32
2023-03-11T10:56:31.339Z,3.50
2023-03-11T10:58:13.063Z,5.07
2023-03-11T10:59:48.553Z,4.57
2023-03-11T11:01:22.170Z,5.05
2023-03-11T11:02:58.225Z,3.08
2023-03-11T11:04:36.683Z,2.80
2023-03-11T11:06:21.911Z,5.32
2023-03-11T11:08:05.324Z,5.38
2023-03-11T11:09:38.241Z,5.30
2023-03-11T11:11:22.531Z,4.75
2023-03-11T11:12:57.852Z,4.18
2023-03-11T11:14:45.146Z,5.40
2023-03-11T11:16:21.358Z,5.72
2023-03-11T11:17:56.523Z,5.72
2023-03-11T11:19:30.919Z,9.00
2023-03-11T11:21:07.539Z,5.35
2023-03-11T11:22:50.588Z,5.43
2023-03-11T11:24:27.158Z,6.32
2023-03-11T11:26:01.854Z,4.85
2023-03-11T11:27:34.964Z,4.13
2023-03-11T11:29:14.172Z,4.88
2023-03-11T11:30:55.097Z,2.97
2023-03-11T11:32:29.169Z,4.05
2023-03-11T11:34:02.099Z,3.58
2023-03-11T11:35:35.628Z,4.95
2023-03-11T11:37:14.672Z,6.13
2023-03-11T11:38:48.980Z,4.05
2023-03-11T11:40:33.140Z,3.50
2023-03-11T11:42:09.532Z,5.70
2023-03-11T11:43:49.657Z,5.22
2023-03-11T11:45:31.140Z,4.88
2023-03-11T11:47:13.134Z,4.55
2023-03-11T11:48:51.108Z,4.93
2023-03-11T11:50:30.045Z,3.10
2023-03-11T11:52:10.009Z,3.03
2023-03-11T11:53:47.732Z,3.47
2023-03-11T11:55:26.084Z,2.92
2023-03-11T11:57:01.369Z,3.25
2023-03-11T11:58:35.430Z,3.72
2023-03-11T12:00:20.623Z,4.13
2023-03-11T12:02:08.160Z,4.15
2023-03-11T12:04:01.282Z,3.35
2023-03-11T12:05:43.302Z,3.85
2023-03-11T12:07:28.635Z,4.13
2023-03-11T12:09:13.493Z,5.50
2023-03-11T12:10:55.761Z,4.68
2023-03-11T12:12:33.725Z,6.53
2023-03-11T12:14:12.725Z,3.88
2023-03-11T12:15:55.641Z,4.65
2023-03-11T12:17:30.641Z,5.15
2023-03-11T12:19:11.435Z,4.90
2023-03-11T12:20:47.491Z,4.35
2023-03-11T12:22:45.984Z,3.15
2023-03-11T12:24:35.813Z,3.10
2023-03-11T12:26:18.397Z,6.30
2023-03-11T12:27:54.624Z,5.25
2023-03-11T12:29:31.005Z,4.13
2023-03-11T12:31:09.058Z,5.38
2023-03-11T12:32:47.100Z,4.90
2023-03-11T12:34:22.979Z,3.80
2023-03-11T12:35:58.285Z,5.20
2023-03-11T12:37:31.619Z,4.82
2023-03-11T12:40:50.655Z,5.70
2023-03-11T12:42:26.108Z,3.55
2023-03-11T12:44:07.229Z,4.43
2023-03-11T12:45:50.095Z,5.82
2023-03-11T12:47:28.756Z,5.77
2023-03-11T12:49:12.761Z,5.82
2023-03-11T12:50:47.127Z,5.20
2023-03-11T12:52:30.972Z,3.88
2023-03-11T12:56:05.986Z,6.57
2023-03-11T12:57:55.114Z,6.05
2023-03-11T13:00:07.715Z,4.97
2023-03-11T13:01:53.042Z,4.00
2023-03-11T13:03:49.893Z,5.07
2023-03-11T13:05:28.605Z,7.55
2023-03-11T13:07:28.316Z,5.47
2023-03-11T13:09:01.668Z,7.95
2023-03-11T13:12:43.463Z,5.80
2023-03-11T13:14:30.302Z,5.00
2023-03-11T13:16:37.168Z,5.07
2023-03-11T13:18:24.778Z,5.32
2023-03-11T13:19:58.141Z,5.25
2023-03-11T13:23:33.800Z,4.40
2023-03-11T13:25:28.758Z,5.72
2023-03-11T13:27:08.800Z,3.38
2023-03-11T13:29:15.506Z,5.47
2023-03-11T13:30:54.810Z,7.38
2023-03-11T13:32:51.553Z,7.05
2023-03-11T13:34:37.029Z,4.38
2023-03-11T13:36:25.246Z,4.80
2023-03-11T13:38:21.781Z,8.40
2023-03-11T13:40:13.976Z,7.00
2023-03-11T13:41:47.853Z,8.43
2023-03-11T13:43:22.546Z,7.00
2023-03-11T13:44:58.594Z,6.85
2023-03-11T13:46:38.380Z,3.92
2023-03-11T13:48:17.628Z,5.18
2023-03-11T13:49:54.953Z,5.40
2023-03-11T13:51:37.341Z,4.57
2023-03-11T13:53:16.650Z,2.92
2023-03-11T13:54:54.091Z,5.45
2023-03-11T13:56:29.836Z,4.93
2023-03-11T13:58:03.793Z,3.88
2023-03-11T13:59:35.926Z,6.20
2023-03-11T14:01:18.367Z,8.73
2023-03-11T14:02:55.158Z,5.88
2023-03-11T14:04:30.175Z,8.25
2023-03-11T14:06:05.997Z,9.10
2023-03-11T14:07:38.997Z,9.05
2023-03-11T14:09:21.198Z,5.38
2023-03-11T14:10:55.787Z,5.13
2023-03-11T14:12:32.581Z,8.82
2023-03-11T14:14:34.129Z,5.35
2023-03-11T14:16:10.676Z,6.70
2023-03-11T14:17:47.664Z,5.40
2023-03-11T14:19:21.605Z,6.93
2023-03-11T14:20:54.863Z,6.78
2023-03-11T14:22:27.931Z,9.70
2023-03-11T14:24:01.198Z,5.00
2023-03-11T14:25:36.449Z,5.30
2023-03-11T14:27:10.947Z,7.20
2023-03-11T14:28:47.583Z,8.02
2023-03-11T14:30:23.875Z,5.25
2023-03-11T14:31:57.066Z,6.53
2023-03-11T14:33:31.381Z,4.95
2023-03-11T14:35:20.442Z,7.53
2023-03-11T14:36:56.968Z,8.43
2023-03-11T14:38:32.602Z,5.32
2023-03-11T14:40:21.519Z,6.28
2023-03-11T14:41:59.518Z,5.45
2023-03-11T14:43:36.175Z,5.78
2023-03-11T14:45:15.369Z,5.00
2023-03-11T14:46:50.194Z,4.13
2023-03-11T14:48:28.239Z,5.47
2023-03-11T14:50:03.853Z,5.60
2023-03-11T14:51:37.253Z,7.25
2023-03-11T14:54:49.578Z,5.38
2023-03-11T14:56:25.923Z,6.03
2023-03-11T14:58:02.251Z,4.18
2023-03-11T14:59:37.119Z,4.72
2023-03-11T15:01:15.504Z,4.15
2023-03-11T15:03:00.743Z,4.68
2023-03-11T15:04:38.072Z,6.03
2023-03-11T15:06:17.231Z,5.15
2023-03-11T15:07:57.391Z,5.72
2023-03-11T15:09:31.015Z,4.40
2023-03-11T15:11:19.002Z,4.78
2023-03-11T15:12:52.097Z,6.25
2023-03-11T15:14:27.740Z,4.28
2023-03-11T15:16:01.993Z,6.05
2023-03-11T15:17:41.353Z,5.70
2023-03-11T15:19:31.017Z,5.55
2023-03-11T15:21:13.786Z,4.10
2023-03-11T15:22:57.623Z,4.32
2023-03-11T15:26:07.032Z,13.73
2023-03-11T15:27:40.472Z,11.98
2023-03-11T15:30:48.414Z,5.68
2023-03-11T15:32:39.874Z,5.88
2023-03-11T15:34:27.107Z,4.82
2023-03-11T15:36:00.154Z,4.97
2023-03-11T15:37:33.166Z,4.53
2023-03-11T15:39:19.863Z,7.80
2023-03-11T15:40:56.131Z,7.20
2023-03-11T15:42:29.204Z,4.50
2023-03-11T15:44:04.116Z,6.78
2023-03-11T15:45:38.112Z,4.20
2023-03-11T15:47:15.027Z,4.53
2023-03-11T15:48:48.091Z,6.65
2023-03-11T15:50:37.218Z,8.13
2023-03-11T15:52:17.289Z,5.88
2023-03-11T15:53:50.225Z,5.65
2023-03-11T15:55:25.567Z,6.05
2023-03-11T15:57:01.103Z,5.35
2023-03-11T15:58:34.023Z,6.13
2023-03-11T16:00:15.343Z,6.47
2023-03-11T16:01:48.360Z,6.82
2023-03-11T16:03:21.776Z,6.45
2023-03-11T16:08:01.988Z,5.38
2023-03-11T16:09:34.905Z,4.60
2023-03-11T16:11:12.379Z,5.20
2023-03-11T16:12:45.359Z,8.63
2023-03-11T16:14:20.937Z,6.07
2023-03-11T16:15:54.346Z,5.65
2023-03-11T16:19:13.327Z,4.68
2023-03-11T16:20:49.084Z,4.47
2023-03-11T16:22:30.714Z,4.95
2023-03-11T16:24:05.259Z,4.95
2023-03-11T16:25:40.810Z,5.53
2023-03-11T16:27:17.816Z,4.60
2023-03-11T16:28:50.799Z,5.20
2023-03-11T16:30:25.008Z,5.88
2023-03-11T16:31:57.874Z,7.28
2023-03-11T16:33:30.990Z,6.88
2023-03-11T16:35:04.557Z,5.28
2023-03-11T16:36:37.486Z,4.97
2023-03-11T16:38:11.044Z,5.90
2023-03-11T16:39:43.949Z,5.40
2023-03-11T16:41:17.924Z,6.13
2023-03-11T16:42:55.719Z,7.85
2023-03-11T16:44:28.724Z,8.85
2023-03-11T16:46:01.696Z,7.88
2023-03-11T16:47:34.605Z,6.45
2023-03-11T16:49:07.632Z,8.00
2023-03-11T16:50:40.564Z,4.95
2023-03-11T16:52:13.575Z,5.32
2023-03-11T16:53:46.609Z,6.65
2023-03-11T16:55:19.874Z,6.25
2023-03-11T16:56:52.806Z,5.47
2023-03-11T16:58:27.105Z,5.68
2023-03-11T17:00:00.260Z,5.38
2023-03-11T17:01:33.222Z,7.18
2023-03-11T17:03:06.981Z,7.18
2023-03-11T17:04:39.988Z,6.53
2023-03-11T17:06:13.033Z,7.90
2023-03-11T17:07:46.133Z,8.32
2023-03-11T17:55:27.079Z,4.53
2023-03-11T17:57:00.047Z,5.80
2023-03-11T17:58:33.631Z,8.32
2023-03-11T18:00:07.947Z,7.25
2023-03-11T18:01:41.020Z,6.30
2023-03-11T18:03:13.978Z,4.88
2023-03-11T18:04:52.093Z,6.03
2023-03-11T18:06:25.282Z,5.28
2023-03-11T18:07:58.493Z,6.13
2023-03-11T18:09:31.392Z,7.40
2023-03-11T18:11:07.888Z,6.60
2023-03-11T18:12:40.989Z,5.40
2023-03-11T18:14:14.033Z,6.82
2023-03-11T18:15:47.398Z,7.28
2023-03-11T18:17:21.414Z,7.60
2023-03-11T18:18:55.140Z,7.80
2023-03-11T18:20:28.203Z,5.97
2023-03-11T18:22:01.143Z,6.00
2023-03-11T18:23:33.445Z,5.13
2023-03-11T18:25:09.671Z,6.72
2023-03-11T18:26:44.059Z,5.60
2023-03-11T18:28:17.080Z,7.03
2023-03-11T18:29:49.949Z,5.88
2023-03-11T18:31:24.458Z,6.90
2023-03-11T18:32:57.372Z,5.97
2023-03-11T18:34:30.622Z,4.50
2023-03-11T18:36:15.829Z,7.90
2023-03-11T18:37:48.782Z,8.13
2023-03-11T18:39:21.704Z,10.40
2023-03-11T18:40:57.998Z,5.05
2023-03-11T18:42:32.257Z,5.72
2023-03-11T18:44:05.882Z,9.82
2023-03-11T18:45:40.605Z,5.60
2023-03-11T18:47:13.493Z,7.88
2023-03-11T18:48:46.404Z,5.53
2023-03-11T18:50:20.065Z,6.70
2023-03-11T18:51:53.041Z,6.47
2023-03-11T18:53:25.977Z,7.80
2023-03-11T18:54:59.061Z,5.63
2023-03-11T18:56:32.017Z,5.10
2023-03-11T18:58:09.280Z,7.50
2023-03-11T18:59:42.154Z,6.32
2023-03-11T19:01:17.100Z,6.28
2023-03-11T19:02:52.457Z,4.38
2023-03-11T19:04:25.712Z,6.38
2023-03-11T19:05:59.583Z,5.80
2023-03-11T19:07:32.891Z,5.95
2023-03-11T19:09:06.583Z,5.20
2023-03-11T19:10:40.602Z,4.20
2023-03-11T19:12:13.712Z,7.15
2023-03-11T19:13:48.381Z,6.43
2023-03-11T19:15:23.063Z,9.43
2023-03-11T19:16:56.029Z,7.95
2023-03-11T19:18:29.074Z,6.07
2023-03-11T19:20:01.965Z,7.35
2023-03-11T19:21:34.872Z,6.28
2023-03-11T19:23:08.286Z,6.93
2023-03-11T19:26:14.543Z,6.82
2023-03-11T19:27:47.613Z,8.02
2023-03-11T19:29:23.696Z,6.40
2023-03-11T19:30:58.445Z,8.50
2023-03-11T19:32:31.414Z,6.57
2023-03-11T19:34:04.496Z,7.45
2023-03-11T19:35:38.038Z,7.05
2023-03-11T19:37:10.989Z,6.10
2023-03-11T19:38:44.008Z,8.30
2023-03-11T19:40:17.830Z,7.75
2023-03-11T19:41:51.142Z,9.20
2023-03-11T19:43:24.265Z,8.73
2023-03-11T19:44:58.497Z,8.77
2023-03-11T19:46:34.411Z,8.70
2023-03-11T19:48:07.590Z,11.23
2023-03-11T19:49:40.461Z,10.75
2023-03-11T19:51:13.326Z,9.88
2023-03-11T19:52:46.679Z,14.07
2023-03-11T19:55:54.668Z,10.60
2023-03-11T19:57:27.877Z,13.18
2023-03-11T19:59:00.781Z,14.00
2023-03-11T20:00:35.126Z,12.30
2023-03-11T20:02:08.143Z,9.60
2023-03-11T20:03:41.067Z,10.35
2023-03-11T20:05:13.967Z,11.25
2023-03-11T20:06:47.702Z,10.43
2023-03-11T20:08:22.131Z,14.80
2023-03-11T20:09:55.126Z,9.50
2023-03-11T20:11:28.122Z,8.18
2023-03-11T20:13:02.906Z,12.77
2023-03-11T20:14:35.922Z,13.07
2023-03-11T20:16:13.176Z,13.60
2023-03-11T20:17:46.126Z,11.73
2023-03-11T20:19:19.054Z,14.20
2023-03-11T20:20:52.066Z,12.30
2023-03-11T20:22:24.991Z,12.13
2023-03-11T20:23:58.386Z,12.15
2023-03-11T20:27:05.774Z,12.52
2023-03-11T20:30:13.016Z,11.60
2023-03-11T20:31:47.628Z,12.98
2023-03-11T20:33:20.522Z,12.98
2023-03-11T20:34:53.469Z,13.88
2023-03-11T20:36:28.660Z,13.07
2023-03-11T20:38:02.784Z,14.88
2023-03-11T20:39:35.705Z,14.13
2023-03-11T20:41:09.828Z,14.43
2023-03-11T20:42:46.782Z,14.38
2023-03-11T20:44:20.088Z,13.60
2023-03-11T20:45:53.054Z,13.63
2023-03-11T20:47:27.408Z,15.15
2023-03-11T20:49:00.479Z,15.00
2023-03-11T20:50:33.328Z,12.43
2023-03-11T20:52:06.264Z,16.58
2023-03-11T20:53:39.941Z,16.48
2023-03-11T20:55:13.640Z,15.25
2023-03-11T20:56:46.555Z,16.17
2023-03-11T20:58:19.413Z,14.43
2023-03-11T20:59:52.404Z,13.70
2023-03-11T21:01:27.967Z,13.40
2023-03-11T21:03:02.306Z,15.57
2023-03-11T21:04:41.093Z,14.00
2023-03-11T21:06:18.683Z,15.47
2023-03-11T21:07:51.690Z,13.38
2023-03-11T21:09:26.666Z,13.15
2023-03-11T21:11:00.861Z,12.23
2023-03-11T21:12:33.869Z,11.38
2023-03-11T21:14:08.389Z,11.65
2023-03-11T21:15:41.317Z,12.17
2023-03-11T21:17:14.502Z,14.25
2023-03-11T21:18:49.648Z,14.18
2023-03-11T21:20:22.898Z,13.68
2023-03-11T21:21:55.853Z,13.57
2023-03-11T21:23:28.776Z,12.10
2023-03-11T21:25:01.910Z,14.20
2023-03-11T21:26:35.070Z,12.20
2023-03-11T21:28:08.076Z,14.23
2023-03-11T21:29:43.801Z,12.32
2023-03-11T21:31:18.702Z,15.63
2023-03-11T21:32:51.886Z,13.13
2023-03-11T21:34:26.370Z,13.90
2023-03-11T21:36:01.624Z,15.33
2023-03-11T21:37:34.611Z,16.23
2023-03-11T21:39:08.112Z,15.27
2023-03-11T21:40:41.041Z,13.70
2023-03-11T21:42:14.239Z,15.25
2023-03-11T21:45:20.517Z,16.73
2023-03-11T21:46:53.558Z,17.35
2023-03-11T21:48:26.581Z,15.30
2023-03-11T21:50:00.850Z,18.42
2023-03-11T21:51:33.882Z,15.90
2023-03-11T21:53:06.915Z,16.98
2023-03-11T21:54:40.004Z,19.42
2023-03-11T21:56:14.175Z,19.30
2023-03-11T21:57:47.089Z,19.83
2023-03-11T21:59:20.061Z,23.67
2023-03-11T22:00:53.592Z,16.55
2023-03-11T22:02:26.482Z,18.27
2023-03-11T22:03:59.439Z,21.30
2023-03-11T22:05:33.751Z,17.50
2023-03-11T22:07:06.784Z,16.83
2023-03-11T22:08:40.544Z,17.63
2023-03-11T22:10:13.658Z,16.57
2023-03-11T22:11:46.739Z,17.35
2023-03-11T22:13:20.086Z,19.52
2023-03-11T22:14:53.331Z,17.70
2023-03-11T22:16:26.400Z,18.02
2023-03-11T22:18:02.140Z,18.38
2023-03-11T22:19:35.169Z,20.13
2023-03-11T22:21:10.895Z,18.27
2023-03-11T22:22:44.074Z,20.07
2023-03-11T22:24:17.231Z,18.73
2023-03-11T22:25:50.153Z,19.45
2023-03-11T22:27:23.020Z,17.85
2023-03-11T22:28:55.907Z,17.48
2023-03-11T22:30:28.896Z,19.13